createdAt,value
2022-08-01T00:52:39.530Z,86.48
2022-08-01T00:55:26.998Z,86.79
2022-08-01T03:11:28.238Z,86.28
2022-08-01T03:13:57.789Z,86.27
2022-08-01T03:16:31.267Z,86.12
2022-08-01T03:19:01.262Z,86.25
2022-08-01T03:22:05.885Z,86.19
2022-08-01T03:24:54.170Z,86.22
2022-08-01T03:27:32.909Z,86.35
2022-08-01T03:30:09.749Z,86.40
2022-08-01T03:33:01.283Z,86.47
2022-08-01T03:38:29.627Z,86.32
2022-08-01T03:41:25.373Z,86.53
2022-08-01T03:44:07.304Z,86.46
2022-08-01T04:17:16.847Z,85.79
2022-08-01T04:20:01.931Z,85.50
2022-08-01T04:22:44.864Z,85.49
2022-08-01T04:29:52.366Z,85.43
2022-08-01T04:56:11.475Z,86.87
2022-08-01T04:59:31.605Z,86.95
2022-08-01T05:02:01.556Z,87.05
2022-08-01T05:04:32.289Z,87.16
2022-08-01T05:07:15.046Z,87.10
2022-08-01T05:09:43.377Z,87.17
2022-08-01T05:12:17.094Z,87.20
2022-08-01T05:14:46.040Z,87.21
2022-08-01T05:17:32.773Z,87.30
2022-08-01T05:20:01.014Z,87.23
2022-08-01T05:22:29.621Z,87.13
2022-08-01T05:32:36.843Z,86.29
2022-08-01T05:35:07.778Z,86.14
2022-08-01T05:37:36.454Z,85.92
2022-08-01T05:40:21.557Z,85.15
2022-08-01T07:19:42.015Z,81.95
2022-08-01T07:22:12.043Z,81.65
2022-08-01T07:24:54.586Z,81.70
2022-08-01T07:27:25.593Z,81.73
2022-08-01T07:30:09.454Z,81.49
2022-08-01T07:32:42.345Z,81.27
2022-08-01T07:35:12.535Z,81.27
2022-08-01T07:37:48.499Z,81.16
2022-08-01T07:40:26.152Z,81.06
2022-08-01T07:43:06.365Z,80.92
2022-08-01T07:45:34.220Z,80.98
2022-08-01T07:48:08.299Z,80.89
2022-08-01T07:50:38.904Z,80.73
2022-08-01T07:53:23.365Z,80.54
2022-08-01T07:56:13.213Z,80.12
2022-08-01T07:58:43.860Z,79.80
2022-08-01T08:04:02.932Z,79.40
2022-08-01T08:06:45.250Z,79.47
2022-08-01T08:09:24.196Z,79.56
2022-08-01T08:11:52.474Z,79.45
2022-08-01T08:14:32.312Z,79.49
2022-08-01T08:17:03.068Z,80.10
2022-08-01T08:19:39.013Z,79.91
2022-08-01T08:22:10.850Z,79.50
2022-08-01T08:24:46.275Z,79.33
2022-08-01T08:27:19.098Z,78.87
2022-08-01T08:29:49.637Z,78.59
2022-08-01T08:32:26.212Z,76.75
2022-08-01T08:34:56.628Z,70.59
2022-08-01T08:37:26.739Z,65.03
2022-08-01T08:39:59.996Z,60.64
2022-08-01T08:42:31.343Z,57.46
2022-08-01T08:44:59.732Z,55.23
2022-08-01T08:48:07.007Z,52.78
2022-08-01T08:50:47.979Z,50.24
2022-08-01T08:53:18.726Z,49.05
2022-08-01T08:56:02.500Z,47.51
2022-08-01T08:58:31.785Z,46.34
2022-08-01T09:01:06.079Z,47.62
2022-08-01T09:03:53.652Z,48.12
2022-08-01T09:06:29.671Z,46.70
2022-08-01T09:09:03.097Z,48.04
2022-08-01T09:11:42.245Z,48.47
2022-08-01T09:14:18.601Z,48.93
2022-08-01T09:19:57.852Z,47.24
2022-08-01T09:22:50.597Z,46.93
2022-08-01T09:25:18.551Z,47.05
2022-08-01T09:27:54.101Z,48.17
2022-08-01T09:30:23.661Z,48.99
2022-08-01T09:32:58.697Z,49.07
2022-08-01T09:35:36.360Z,48.80
2022-08-01T09:38:22.721Z,48.89
2022-08-01T09:40:55.572Z,48.28
2022-08-01T09:43:27.936Z,47.80
2022-08-01T09:45:57.920Z,47.98
2022-08-01T09:48:29.474Z,48.36
2022-08-01T09:51:09.734Z,48.75
2022-08-01T09:53:54.714Z,49.19
2022-08-01T09:56:25.134Z,49.06
2022-08-01T09:59:01.426Z,49.13
2022-08-01T10:01:36.959Z,48.98
2022-08-01T10:04:12.442Z,48.72
2022-08-01T10:06:46.121Z,47.91
2022-08-01T10:09:15.817Z,47.04
2022-08-01T10:11:49.036Z,46.87
2022-08-01T10:14:22.668Z,46.54
2022-08-01T10:16:56.677Z,46.77
2022-08-01T10:19:31.869Z,47.01
2022-08-01T10:22:01.276Z,46.87
2022-08-01T10:24:33.342Z,46.44
2022-08-01T10:27:09.577Z,46.37
2022-08-01T10:30:05.686Z,46.80
2022-08-01T10:32:37.597Z,47.46
2022-08-01T10:35:14.824Z,48.30
2022-08-01T10:37:51.423Z,48.54
2022-08-01T10:40:31.709Z,48.36
2022-08-01T10:43:03.842Z,48.22
2022-08-01T10:45:33.069Z,48.11
2022-08-01T10:48:08.277Z,48.54
2022-08-01T10:50:48.446Z,48.85
2022-08-01T10:53:31.989Z,48.86
2022-08-01T10:56:13.235Z,49.49
2022-08-01T10:58:49.637Z,49.91
2022-08-01T11:01:25.650Z,49.77
2022-08-01T11:04:06.924Z,49.98
2022-08-01T11:06:52.577Z,50.03
2022-08-01T11:09:36.232Z,49.69
2022-08-01T11:12:22.906Z,49.94
2022-08-01T11:15:31.918Z,50.06
2022-08-01T11:18:02.178Z,49.92
2022-08-01T11:20:34.425Z,50.46
2022-08-01T11:23:28.784Z,50.33
2022-08-01T11:26:29.045Z,50.85
2022-08-01T11:29:22.118Z,50.97
2022-08-01T11:31:54.278Z,51.11
2022-08-01T11:34:42.658Z,51.30
2022-08-01T11:37:30.703Z,51.35
2022-08-01T11:40:19.820Z,51.17
2022-08-01T11:43:20.283Z,51.46
2022-08-01T11:46:06.871Z,51.45
2022-08-01T11:48:37.045Z,51.44
2022-08-01T11:51:09.368Z,51.37
2022-08-01T11:54:06.676Z,51.75
2022-08-01T11:56:43.030Z,51.50
2022-08-01T11:59:19.274Z,51.66
2022-08-01T12:01:49.762Z,52.00
2022-08-01T12:04:20.997Z,52.24
2022-08-01T12:06:49.423Z,52.30
2022-08-01T12:09:23.286Z,52.49
2022-08-01T12:11:51.561Z,53.06
2022-08-01T12:14:23.727Z,53.31
2022-08-01T12:16:57.359Z,53.67
2022-08-01T12:19:28.754Z,54.25
2022-08-01T12:22:11.007Z,54.58
2022-08-01T12:24:42.916Z,54.85
2022-08-01T12:27:13.474Z,55.28
2022-08-01T12:29:47.735Z,55.79
2022-08-01T12:32:35.788Z,56.00
2022-08-01T12:35:06.915Z,55.74
2022-08-01T12:37:42.172Z,56.13
2022-08-01T12:40:15.851Z,55.87
2022-08-01T12:42:45.628Z,55.47
2022-08-01T12:45:18.651Z,55.19
2022-08-01T12:47:52.058Z,54.75
2022-08-01T12:50:32.129Z,53.89
2022-08-01T12:53:07.204Z,53.29
2022-08-01T12:55:59.243Z,52.65
2022-08-01T12:58:34.396Z,52.86
2022-08-01T13:01:06.768Z,52.88
2022-08-01T13:03:35.176Z,52.25
2022-08-01T13:06:11.546Z,51.89
2022-08-01T13:08:40.159Z,51.26
2022-08-01T13:11:21.071Z,50.69
2022-08-01T13:13:52.145Z,50.93
2022-08-01T13:16:34.357Z,50.97
2022-08-01T13:19:07.620Z,51.30
2022-08-01T13:21:53.591Z,51.54
2022-08-01T13:24:33.726Z,52.14
2022-08-01T13:27:26.005Z,52.49
2022-08-01T13:29:54.635Z,53.12
2022-08-01T13:32:29.654Z,53.73
2022-08-01T13:35:05.385Z,54.23
2022-08-01T13:37:34.780Z,54.76
2022-08-01T13:40:08.233Z,55.58
2022-08-01T13:42:40.595Z,56.33
2022-08-01T13:45:22.243Z,57.87
2022-08-01T14:10:50.533Z,66.45
2022-08-01T14:31:09.336Z,67.01
2022-08-01T14:33:49.908Z,67.68
2022-08-01T14:36:29.605Z,68.44
2022-08-01T14:39:00.789Z,68.82
2022-08-01T14:41:31.850Z,69.52
2022-08-01T14:44:02.432Z,69.97
2022-08-01T14:46:31.638Z,71.06
2022-08-01T14:49:06.478Z,71.11
2022-08-01T14:51:47.667Z,71.48
2022-08-01T14:54:18.883Z,71.44
2022-08-01T14:57:00.774Z,72.12
2022-08-01T14:59:28.861Z,72.30
2022-08-01T15:01:58.563Z,72.86
2022-08-01T15:04:27.042Z,72.82
2022-08-01T15:06:56.839Z,73.33
2022-08-01T15:09:42.085Z,73.79
2022-08-01T15:12:11.659Z,73.73
2022-08-01T15:14:56.657Z,74.18
2022-08-01T15:17:44.131Z,74.38
2022-08-01T15:20:13.228Z,74.83
2022-08-01T15:22:51.253Z,74.96
2022-08-01T15:25:40.858Z,75.38
2022-08-01T15:28:26.153Z,75.70
2022-08-01T15:31:39.555Z,75.71
2022-08-01T15:34:10.669Z,77.42
2022-08-01T15:36:43.460Z,77.73
2022-08-01T15:39:22.104Z,77.51
2022-08-01T15:41:53.243Z,77.67
2022-08-01T15:44:28.784Z,78.23
2022-08-01T15:47:37.413Z,78.67
2022-08-01T15:53:07.147Z,80.44
2022-08-01T15:55:52.960Z,81.32
2022-08-01T15:58:21.965Z,82.22
2022-08-01T16:00:50.370Z,83.15
2022-08-01T16:03:19.011Z,84.54
2022-08-01T16:05:47.370Z,85.45
2022-08-01T16:08:15.868Z,86.06
2022-08-01T16:10:47.550Z,86.10
2022-08-01T16:13:18.929Z,87.28
2022-08-01T16:15:54.429Z,88.74
2022-08-01T16:18:23.852Z,89.52
2022-08-01T16:20:59.117Z,90.57
2022-08-01T16:23:31.716Z,91.31
2022-08-01T16:26:02.302Z,91.44
2022-08-01T16:28:33.258Z,91.29
2022-08-01T16:31:12.873Z,91.17
2022-08-01T16:33:53.987Z,91.42
2022-08-01T16:36:27.443Z,91.59
2022-08-01T16:38:57.665Z,91.99
2022-08-01T16:41:27.935Z,91.94
2022-08-01T16:43:56.119Z,92.44
2022-08-01T16:46:26.128Z,93.00
2022-08-01T16:48:55.030Z,93.37
2022-08-01T16:51:23.942Z,93.74
2022-08-01T16:53:55.362Z,94.11
2022-08-01T16:56:31.284Z,93.94
2022-08-01T16:59:00.093Z,94.57
2022-08-01T17:01:59.224Z,94.44
2022-08-01T17:04:17.883Z,94.77
2022-08-01T17:06:49.994Z,94.62
2022-08-01T17:09:28.085Z,94.67
2022-08-01T17:12:10.356Z,94.91
2022-08-01T17:14:40.796Z,95.33
2022-08-01T17:17:10.633Z,95.70
2022-08-01T17:19:42.287Z,96.01
2022-08-01T17:22:13.026Z,95.90
2022-08-01T17:24:55.253Z,96.03
2022-08-01T17:27:29.816Z,95.81
2022-08-01T17:30:26.636Z,96.08
2022-08-01T17:33:10.654Z,96.06
2022-08-01T17:35:39.276Z,96.41
2022-08-01T17:38:17.071Z,96.82
2022-08-01T17:40:45.654Z,97.36
2022-08-01T17:43:35.709Z,97.84
2022-08-01T17:46:08.611Z,98.32
2022-08-01T17:48:37.335Z,98.82
2022-08-01T17:51:06.851Z,99.07
2022-08-01T17:53:35.436Z,99.07
2022-08-01T17:56:06.860Z,99.31
2022-08-01T17:59:02.490Z,99.41
2022-08-01T18:01:31.230Z,99.10
2022-08-01T18:04:00.614Z,99.05
2022-08-01T18:06:37.204Z,98.96
2022-08-01T18:09:09.552Z,98.88
2022-08-01T18:11:59.194Z,98.78
2022-08-01T18:14:40.540Z,98.98
2022-08-01T18:17:13.822Z,98.67
2022-08-01T18:19:52.029Z,99.06
2022-08-01T18:22:33.372Z,99.52
2022-08-01T18:25:26.532Z,99.81
2022-08-01T18:28:22.539Z,100.00
2022-08-01T18:30:59.931Z,100.00
2022-08-01T18:34:29.822Z,100.00
2022-08-01T18:37:18.344Z,99.50
2022-08-01T18:40:25.914Z,99.43
2022-08-01T18:42:56.381Z,98.91
2022-08-01T18:45:44.421Z,98.96
2022-08-01T18:48:21.432Z,98.58
2022-08-01T18:54:20.193Z,98.50
2022-08-01T18:57:16.854Z,98.26
2022-08-01T19:02:50.918Z,98.59
2022-08-01T19:05:23.306Z,99.09
2022-08-01T19:08:13.625Z,98.86
2022-08-01T19:10:50.185Z,98.95
2022-08-01T19:13:28.509Z,98.73
2022-08-01T19:19:27.615Z,98.58
2022-08-01T19:22:32.275Z,98.48
2022-08-01T19:25:12.587Z,98.17
2022-08-01T19:27:55.471Z,98.23
2022-08-01T19:31:48.513Z,98.74
2022-08-01T19:34:05.789Z,98.38
2022-08-01T19:36:40.020Z,98.58
2022-08-01T19:43:02.372Z,99.06
2022-08-01T19:47:13.603Z,99.10
2022-08-01T19:49:47.014Z,99.38
2022-08-01T19:52:56.302Z,99.63
2022-08-01T19:56:16.396Z,99.99
2022-08-01T20:01:50.648Z,100.00
2022-08-01T20:04:41.042Z,100.00
2022-08-01T20:07:23.216Z,100.00
2022-08-01T20:11:10.315Z,100.00
2022-08-01T20:14:04.473Z,100.00
2022-08-01T20:16:38.638Z,100.00
2022-08-01T20:22:41.665Z,100.00
2022-08-01T20:25:39.893Z,100.00
2022-08-01T20:29:01.359Z,100.00
2022-08-01T20:39:53.352Z,100.00
2022-08-01T20:45:27.691Z,100.00
2022-08-01T20:51:56.857Z,100.00
2022-08-01T20:54:49.199Z,100.00
2022-08-01T20:57:26.340Z,100.00
2022-08-01T21:04:04.935Z,100.00
2022-08-01T21:06:38.337Z,100.00
2022-08-01T21:09:22.032Z,100.00
2022-08-01T21:12:43.952Z,100.00
2022-08-01T21:15:33.487Z,100.00
2022-08-01T21:18:20.805Z,100.00
2022-08-01T21:21:32.784Z,100.00
2022-08-01T21:27:20.837Z,100.00
2022-08-01T21:30:55.497Z,100.00
2022-08-01T21:34:37.118Z,100.00
2022-08-01T21:37:52.551Z,100.00
2022-08-01T21:40:42.825Z,100.00
2022-08-01T21:46:20.244Z,100.00
2022-08-01T21:49:15.986Z,100.00
2022-08-01T21:52:04.311Z,100.00
2022-08-01T21:54:50.435Z,100.00
2022-08-01T21:57:57.790Z,100.00
2022-08-01T22:00:34.129Z,100.00
2022-08-01T22:09:38.485Z,100.00
2022-08-01T22:12:18.531Z,100.00
2022-08-01T22:15:12.728Z,100.00
2022-08-01T22:18:23.031Z,100.00
2022-08-01T22:21:16.108Z,100.00
2022-08-01T22:24:31.088Z,100.00
2022-08-01T22:28:06.171Z,100.00
2022-08-01T22:30:35.775Z,100.00
2022-08-01T22:33:33.210Z,100.00
2022-08-01T22:36:12.948Z,100.00
2022-08-01T22:38:51.441Z,100.00
2022-08-01T22:42:01.739Z,100.00
2022-08-01T22:44:45.291Z,100.00
2022-08-01T22:47:31.219Z,100.00
2022-08-01T22:50:36.314Z,100.00
2022-08-01T22:53:37.470Z,100.00
2022-08-01T22:56:28.778Z,100.00
2022-08-01T22:59:42.879Z,100.00
2022-08-01T23:06:02.914Z,100.00
2022-08-01T23:09:17.101Z,100.00
2022-08-01T23:12:09.679Z,100.00
2022-08-01T23:15:06.217Z,100.00
2022-08-01T23:18:14.054Z,100.00
2022-08-01T23:21:18.805Z,100.00
2022-08-01T23:27:56.006Z,100.00
2022-08-01T23:34:20.953Z,100.00
2022-08-01T23:37:31.832Z,100.00
2022-08-01T23:40:33.230Z,100.00
2022-08-01T23:43:26.443Z,100.00
2022-08-01T23:46:04.476Z,100.00
2022-08-01T23:48:46.221Z,100.00
2022-08-01T23:51:24.251Z,100.00
2022-08-01T23:54:02.926Z,100.00
2022-08-01T23:57:06.577Z,100.00
2022-08-01T23:59:53.000Z,100.00
